sensor_id;sensor_type;location;lat;lon;timestamp;temperature;humidity
52609;DHT22;38503;48.544;12.142;2022-12-24T00:01:02;10.20;99.90
52609;DHT22;38503;48.544;12.142;2022-12-24T00:03:29;10.10;99.90
52609;DHT22;38503;48.544;12.142;2022-12-24T00:05:56;10.10;99.90
52609;DHT22;38503;48.544;12.142;2022-12-24T00:08:23;10.00;99.90
52609;DHT22;38503;48.544;12.142;2022-12-24T00:10:53;9.90;99.90
52609;DHT22;38503;48.544;12.142;2022-12-24T00:13:20;9.90;99.90
52609;DHT22;38503;48.544;12.142;2022-12-24T00:15:47;9.80;99.90
52609;DHT22;38503;48.544;12.142;2022-12-24T00:18:15;9.80;99.90
52609;DHT22;38503;48.544;12.142;2022-12-24T00:20:47;9.80;99.90
52609;DHT22;38503;48.544;12.142;2022-12-24T00:23:16;9.80;99.90
52609;DHT22;38503;48.544;12.142;2022-12-24T00:25:43;9.80;99.90
52609;DHT22;38503;48.544;12.142;2022-12-24T00:28:11;9.70;99.90
52609;DHT22;38503;48.544;12.142;2022-12-24T00:30:40;9.70;99.90
52609;DHT22;38503;48.544;12.142;2022-12-24T00:33:07;9.70;99.90
52609;DHT22;38503;48.544;12.142;2022-12-24T00:35:34;9.80;99.90
52609;DHT22;38503;48.544;12.142;2022-12-24T00:38:01;9.70;99.90
52609;DHT22;38503;48.544;12.142;2022-12-24T00:40:30;9.70;99.90
52609;DHT22;38503;48.544;12.142;2022-12-24T00:42:57;9.70;99.90
52609;DHT22;38503;48.544;12.142;2022-12-24T00:45:24;9.70;99.90
52609;DHT22;38503;48.544;12.142;2022-12-24T00:47:53;9.70;99.90
52609;DHT22;38503;48.544;12.142;2022-12-24T00:50:20;9.60;99.90
52609;DHT22;38503;48.544;12.142;2022-12-24T00:52:47;9.60;99.90
52609;DHT22;38503;48.544;12.142;2022-12-24T00:55:14;9.60;99.90
52609;DHT22;38503;48.544;12.142;2022-12-24T00:57:41;9.60;99.90
52609;DHT22;38503;48.544;12.142;2022-12-24T01:00:08;9.60;99.90
52609;DHT22;38503;48.544;12.142;2022-12-24T01:02:35;9.60;99.90
52609;DHT22;38503;48.544;12.142;2022-12-24T01:05:02;9.60;99.90
52609;DHT22;38503;48.544;12.142;2022-12-24T01:07:42;9.60;99.90
52609;DHT22;38503;48.544;12.142;2022-12-24T01:10:12;9.60;99.90
52609;DHT22;38503;48.544;12.142;2022-12-24T01:12:40;9.50;99.90
52609;DHT22;38503;48.544;12.142;2022-12-24T01:15:07;9.50;99.90
52609;DHT22;38503;48.544;12.142;2022-12-24T01:17:35;9.50;99.90
52609;DHT22;38503;48.544;12.142;2022-12-24T01:20:03;9.50;99.90
52609;DHT22;38503;48.544;12.142;2022-12-24T01:22:31;9.50;99.90
52609;DHT22;38503;48.544;12.142;2022-12-24T01:24:57;9.50;99.90
52609;DHT22;38503;48.544;12.142;2022-12-24T01:27:24;9.50;99.90
52609;DHT22;38503;48.544;12.142;2022-12-24T01:29:51;9.60;99.90
52609;DHT22;38503;48.544;12.142;2022-12-24T01:32:18;9.50;99.90
52609;DHT22;38503;48.544;12.142;2022-12-24T01:34:45;9.50;99.90
52609;DHT22;38503;48.544;12.142;2022-12-24T01:37:11;9.50;99.90
52609;DHT22;38503;48.544;12.142;2022-12-24T01:39:38;9.50;99.90
52609;DHT22;38503;48.544;12.142;2022-12-24T01:42:23;9.50;99.90
52609;DHT22;38503;48.544;12.142;2022-12-24T01:48:04;9.40;99.90
52609;DHT22;38503;48.544;12.142;2022-12-24T01:50:34;9.30;99.90
52609;DHT22;38503;48.544;12.142;2022-12-24T01:53:02;9.20;99.90
52609;DHT22;38503;48.544;12.142;2022-12-24T01:55:30;9.20;99.90
52609;DHT22;38503;48.544;12.142;2022-12-24T01:57:58;9.30;99.90
52609;DHT22;38503;48.544;12.142;2022-12-24T02:00:25;9.30;99.90
52609;DHT22;38503;48.544;12.142;2022-12-24T02:02:52;9.30;99.90
52609;DHT22;38503;48.544;12.142;2022-12-24T02:05:41;9.20;99.90
52609;DHT22;38503;48.544;12.142;2022-12-24T02:08:12;9.20;99.90
52609;DHT22;38503;48.544;12.142;2022-12-24T02:10:39;9.20;99.90
52609;DHT22;38503;48.544;12.142;2022-12-24T02:13:06;9.20;99.90
52609;DHT22;38503;48.544;12.142;2022-12-24T02:15:46;9.20;99.90
52609;DHT22;38503;48.544;12.142;2022-12-24T02:21:21;9.10;99.90
52609;DHT22;38503;48.544;12.142;2022-12-24T02:29:21;9.00;99.90
52609;DHT22;38503;48.544;12.142;2022-12-24T02:32:01;9.10;99.90
52609;DHT22;38503;48.544;12.142;2022-12-24T02:34:35;9.00;99.90
52609;DHT22;38503;48.544;12.142;2022-12-24T02:37:22;9.00;99.90
52609;DHT22;38503;48.544;12.142;2022-12-24T02:40:06;9.10;99.90
52609;DHT22;38503;48.544;12.142;2022-12-24T02:42:44;9.00;99.90
52609;DHT22;38503;48.544;12.142;2022-12-24T02:45:17;9.00;99.90
52609;DHT22;38503;48.544;12.142;2022-12-24T02:47:47;9.00;99.90
52609;DHT22;38503;48.544;12.142;2022-12-24T02:50:16;9.10;99.90
52609;DHT22;38503;48.544;12.142;2022-12-24T02:52:45;9.00;99.90
52609;DHT22;38503;48.544;12.142;2022-12-24T03:06:55;9.00;99.90
52609;DHT22;38503;48.544;12.142;2022-12-24T03:09:36;9.00;99.90
52609;DHT22;38503;48.544;12.142;2022-12-24T03:12:11;9.00;99.90
52609;DHT22;38503;48.544;12.142;2022-12-24T03:14:39;9.00;99.90
52609;DHT22;38503;48.544;12.142;2022-12-24T03:17:08;9.00;99.90
52609;DHT22;38503;48.544;12.142;2022-12-24T03:19:35;9.00;99.90
52609;DHT22;38503;48.544;12.142;2022-12-24T03:22:06;9.00;99.90
52609;DHT22;38503;48.544;12.142;2022-12-24T03:24:34;9.00;99.90
52609;DHT22;38503;48.544;12.142;2022-12-24T03:27:01;9.00;99.90
52609;DHT22;38503;48.544;12.142;2022-12-24T03:29:30;9.00;99.90
52609;DHT22;38503;48.544;12.142;2022-12-24T03:32:02;8.90;99.90
52609;DHT22;38503;48.544;12.142;2022-12-24T03:34:29;8.90;99.90
52609;DHT22;38503;48.544;12.142;2022-12-24T03:36:56;8.90;99.90
52609;DHT22;38503;48.544;12.142;2022-12-24T03:39:23;8.90;99.90
52609;DHT22;38503;48.544;12.142;2022-12-24T03:41:50;8.90;99.90
52609;DHT22;38503;48.544;12.142;2022-12-24T03:44:17;8.90;99.90
52609;DHT22;38503;48.544;12.142;2022-12-24T03:46:44;8.80;99.90
52609;DHT22;38503;48.544;12.142;2022-12-24T03:49:11;8.90;99.90
52609;DHT22;38503;48.544;12.142;2022-12-24T03:51:38;8.90;99.90
52609;DHT22;38503;48.544;12.142;2022-12-24T03:54:04;8.90;99.90
52609;DHT22;38503;48.544;12.142;2022-12-24T03:56:31;8.90;99.90
52609;DHT22;38503;48.544;12.142;2022-12-24T03:58:58;8.90;99.90
52609;DHT22;38503;48.544;12.142;2022-12-24T04:01:25;8.90;99.90
52609;DHT22;38503;48.544;12.142;2022-12-24T04:03:52;8.90;99.90
52609;DHT22;38503;48.544;12.142;2022-12-24T04:06:19;8.90;99.90
52609;DHT22;38503;48.544;12.142;2022-12-24T04:08:46;8.90;99.90
52609;DHT22;38503;48.544;12.142;2022-12-24T04:11:14;9.00;99.90
52609;DHT22;38503;48.544;12.142;2022-12-24T04:13:41;9.00;99.90
52609;DHT22;38503;48.544;12.142;2022-12-24T04:16:11;9.10;99.90
52609;DHT22;38503;48.544;12.142;2022-12-24T04:18:38;9.10;99.90
52609;DHT22;38503;48.544;12.142;2022-12-24T04:21:06;9.10;99.90
52609;DHT22;38503;48.544;12.142;2022-12-24T04:23:35;9.10;99.90
52609;DHT22;38503;48.544;12.142;2022-12-24T04:26:04;9.00;99.90
52609;DHT22;38503;48.544;12.142;2022-12-24T04:28:32;9.00;99.90
52609;DHT22;38503;48.544;12.142;2022-12-24T04:31:07;8.90;99.90
52609;DHT22;38503;48.544;12.142;2022-12-24T04:33:34;8.80;99.90
52609;DHT22;38503;48.544;12.142;2022-12-24T04:36:03;8.80;99.90
52609;DHT22;38503;48.544;12.142;2022-12-24T04:38:31;8.70;99.90
52609;DHT22;38503;48.544;12.142;2022-12-24T04:41:06;8.70;99.90
52609;DHT22;38503;48.544;12.142;2022-12-24T04:43:33;8.70;99.90
52609;DHT22;38503;48.544;12.142;2022-12-24T04:46:08;8.70;99.90
52609;DHT22;38503;48.544;12.142;2022-12-24T04:48:36;8.70;99.90
52609;DHT22;38503;48.544;12.142;2022-12-24T04:51:04;8.60;99.90
52609;DHT22;38503;48.544;12.142;2022-12-24T04:53:32;8.60;99.90
52609;DHT22;38503;48.544;12.142;2022-12-24T04:55:59;8.60;99.90
52609;DHT22;38503;48.544;12.142;2022-12-24T04:58:26;8.60;99.90
52609;DHT22;38503;48.544;12.142;2022-12-24T05:00:53;8.70;99.90
52609;DHT22;38503;48.544;12.142;2022-12-24T05:03:21;8.70;99.90
52609;DHT22;38503;48.544;12.142;2022-12-24T05:05:48;8.70;99.90
52609;DHT22;38503;48.544;12.142;2022-12-24T05:08:14;8.70;99.90
52609;DHT22;38503;48.544;12.142;2022-12-24T05:10:41;8.70;99.90
52609;DHT22;38503;48.544;12.142;2022-12-24T05:13:08;8.70;99.90
52609;DHT22;38503;48.544;12.142;2022-12-24T05:15:35;8.60;99.90
52609;DHT22;38503;48.544;12.142;2022-12-24T05:18:02;8.60;99.90
52609;DHT22;38503;48.544;12.142;2022-12-24T05:20:29;8.60;99.90
52609;DHT22;38503;48.544;12.142;2022-12-24T05:22:55;8.70;99.90
52609;DHT22;38503;48.544;12.142;2022-12-24T05:25:41;8.60;99.90
52609;DHT22;38503;48.544;12.142;2022-12-24T05:28:27;8.60;99.90
52609;DHT22;38503;48.544;12.142;2022-12-24T05:30:53;8.60;99.90
52609;DHT22;38503;48.544;12.142;2022-12-24T05:33:20;8.60;99.90
52609;DHT22;38503;48.544;12.142;2022-12-24T05:35:48;8.60;99.90
52609;DHT22;38503;48.544;12.142;2022-12-24T05:38:16;8.70;99.90
52609;DHT22;38503;48.544;12.142;2022-12-24T05:40:43;8.60;99.90
52609;DHT22;38503;48.544;12.142;2022-12-24T05:43:10;8.60;99.90
52609;DHT22;38503;48.544;12.142;2022-12-24T05:45:36;8.60;99.90
52609;DHT22;38503;48.544;12.142;2022-12-24T05:48:03;8.70;99.90
52609;DHT22;38503;48.544;12.142;2022-12-24T05:50:37;8.70;99.90
52609;DHT22;38503;48.544;12.142;2022-12-24T05:53:05;8.80;99.90
52609;DHT22;38503;48.544;12.142;2022-12-24T05:55:32;8.80;99.90
52609;DHT22;38503;48.544;12.142;2022-12-24T05:58:00;8.80;99.90
52609;DHT22;38503;48.544;12.142;2022-12-24T06:00:27;8.80;99.90
52609;DHT22;38503;48.544;12.142;2022-12-24T06:02:53;8.80;99.90
52609;DHT22;38503;48.544;12.142;2022-12-24T06:05:20;8.80;99.90
52609;DHT22;38503;48.544;12.142;2022-12-24T06:07:47;8.90;99.90
52609;DHT22;38503;48.544;12.142;2022-12-24T06:10:14;8.80;99.90
52609;DHT22;38503;48.544;12.142;2022-12-24T06:12:41;8.80;99.90
52609;DHT22;38503;48.544;12.142;2022-12-24T06:15:08;8.80;99.90
52609;DHT22;38503;48.544;12.142;2022-12-24T06:17:35;8.80;99.90
52609;DHT22;38503;48.544;12.142;2022-12-24T06:20:03;8.70;99.90
52609;DHT22;38503;48.544;12.142;2022-12-24T06:22:30;8.60;99.90
52609;DHT22;38503;48.544;12.142;2022-12-24T06:24:57;8.70;99.90
52609;DHT22;38503;48.544;12.142;2022-12-24T06:27:24;8.70;99.90
52609;DHT22;38503;48.544;12.142;2022-12-24T06:29:50;8.60;99.90
52609;DHT22;38503;48.544;12.142;2022-12-24T06:32:18;8.60;99.90
52609;DHT22;38503;48.544;12.142;2022-12-24T06:34:45;8.50;99.90
52609;DHT22;38503;48.544;12.142;2022-12-24T06:37:12;8.50;99.90
52609;DHT22;38503;48.544;12.142;2022-12-24T06:39:47;8.40;99.90
52609;DHT22;38503;48.544;12.142;2022-12-24T06:42:14;8.40;99.90
52609;DHT22;38503;48.544;12.142;2022-12-24T06:44:41;8.40;99.90
52609;DHT22;38503;48.544;12.142;2022-12-24T06:47:07;8.40;99.90
52609;DHT22;38503;48.544;12.142;2022-12-24T06:49:34;8.30;99.90
52609;DHT22;38503;48.544;12.142;2022-12-24T06:52:01;8.30;99.90
52609;DHT22;38503;48.544;12.142;2022-12-24T06:54:28;8.30;99.90
52609;DHT22;38503;48.544;12.142;2022-12-24T06:56:55;8.30;99.90
52609;DHT22;38503;48.544;12.142;2022-12-24T06:59:23;8.30;99.90
52609;DHT22;38503;48.544;12.142;2022-12-24T07:01:50;8.30;99.90
52609;DHT22;38503;48.544;12.142;2022-12-24T07:04:17;8.30;99.90
52609;DHT22;38503;48.544;12.142;2022-12-24T07:06:46;8.30;99.90
52609;DHT22;38503;48.544;12.142;2022-12-24T07:09:13;8.40;99.90
52609;DHT22;38503;48.544;12.142;2022-12-24T07:11:40;8.40;99.90
52609;DHT22;38503;48.544;12.142;2022-12-24T07:14:07;8.40;99.90
52609;DHT22;38503;48.544;12.142;2022-12-24T07:16:33;8.40;99.90
52609;DHT22;38503;48.544;12.142;2022-12-24T07:19:01;8.50;99.90
52609;DHT22;38503;48.544;12.142;2022-12-24T07:21:28;8.50;99.90
52609;DHT22;38503;48.544;12.142;2022-12-24T07:23:54;8.50;99.90
52609;DHT22;38503;48.544;12.142;2022-12-24T07:26:21;8.50;99.90
52609;DHT22;38503;48.544;12.142;2022-12-24T07:28:48;8.60;99.90
52609;DHT22;38503;48.544;12.142;2022-12-24T07:31:15;8.60;99.90
52609;DHT22;38503;48.544;12.142;2022-12-24T07:33:42;8.60;99.90
52609;DHT22;38503;48.544;12.142;2022-12-24T07:36:13;8.50;99.90
52609;DHT22;38503;48.544;12.142;2022-12-24T07:38:41;8.50;99.90
52609;DHT22;38503;48.544;12.142;2022-12-24T07:41:08;8.50;99.90
52609;DHT22;38503;48.544;12.142;2022-12-24T07:43:34;8.50;99.90
52609;DHT22;38503;48.544;12.142;2022-12-24T07:46:01;8.50;99.90
52609;DHT22;38503;48.544;12.142;2022-12-24T07:48:29;8.50;99.90
52609;DHT22;38503;48.544;12.142;2022-12-24T07:50:56;8.60;99.90
52609;DHT22;38503;48.544;12.142;2022-12-24T07:53:25;8.60;99.90
52609;DHT22;38503;48.544;12.142;2022-12-24T07:55:52;8.60;99.90
52609;DHT22;38503;48.544;12.142;2022-12-24T07:58:19;8.60;99.90
52609;DHT22;38503;48.544;12.142;2022-12-24T08:00:46;8.60;99.90
52609;DHT22;38503;48.544;12.142;2022-12-24T08:03:17;8.60;99.90
52609;DHT22;38503;48.544;12.142;2022-12-24T08:05:45;8.60;99.90
52609;DHT22;38503;48.544;12.142;2022-12-24T08:08:12;8.60;99.90
52609;DHT22;38503;48.544;12.142;2022-12-24T08:10:40;8.60;99.90
52609;DHT22;38503;48.544;12.142;2022-12-24T08:13:07;8.70;99.90
52609;DHT22;38503;48.544;12.142;2022-12-24T08:15:34;8.70;99.90
52609;DHT22;38503;48.544;12.142;2022-12-24T08:18:01;8.70;99.90
52609;DHT22;38503;48.544;12.142;2022-12-24T08:20:28;8.70;99.90
52609;DHT22;38503;48.544;12.142;2022-12-24T08:22:55;8.70;99.90
52609;DHT22;38503;48.544;12.142;2022-12-24T08:25:21;8.70;99.90
52609;DHT22;38503;48.544;12.142;2022-12-24T08:27:48;8.70;99.90
52609;DHT22;38503;48.544;12.142;2022-12-24T08:30:15;8.70;99.90
52609;DHT22;38503;48.544;12.142;2022-12-24T08:32:47;8.70;99.90
52609;DHT22;38503;48.544;12.142;2022-12-24T08:35:14;8.70;99.90
52609;DHT22;38503;48.544;12.142;2022-12-24T08:37:42;8.60;99.90
52609;DHT22;38503;48.544;12.142;2022-12-24T08:40:10;8.60;99.90
52609;DHT22;38503;48.544;12.142;2022-12-24T08:42:37;8.60;99.90
52609;DHT22;38503;48.544;12.142;2022-12-24T08:45:05;8.70;99.90
52609;DHT22;38503;48.544;12.142;2022-12-24T08:47:32;8.70;99.90
52609;DHT22;38503;48.544;12.142;2022-12-24T08:49:58;8.70;99.90
52609;DHT22;38503;48.544;12.142;2022-12-24T08:52:25;8.80;99.90
52609;DHT22;38503;48.544;12.142;2022-12-24T08:54:52;8.80;99.90
52609;DHT22;38503;48.544;12.142;2022-12-24T08:57:19;8.80;99.90
52609;DHT22;38503;48.544;12.142;2022-12-24T08:59:46;8.90;99.90
52609;DHT22;38503;48.544;12.142;2022-12-24T09:02:13;9.00;99.90
52609;DHT22;38503;48.544;12.142;2022-12-24T09:04:40;9.10;99.90
52609;DHT22;38503;48.544;12.142;2022-12-24T09:07:08;9.20;99.90
52609;DHT22;38503;48.544;12.142;2022-12-24T09:09:35;9.30;99.90
52609;DHT22;38503;48.544;12.142;2022-12-24T09:12:05;9.20;99.90
52609;DHT22;38503;48.544;12.142;2022-12-24T09:14:32;9.20;99.90
52609;DHT22;38503;48.544;12.142;2022-12-24T09:16:59;9.20;99.90
52609;DHT22;38503;48.544;12.142;2022-12-24T09:19:27;9.10;99.90
52609;DHT22;38503;48.544;12.142;2022-12-24T09:21:53;9.10;99.90
52609;DHT22;38503;48.544;12.142;2022-12-24T09:24:20;9.20;99.90
52609;DHT22;38503;48.544;12.142;2022-12-24T09:26:47;9.20;99.90
52609;DHT22;38503;48.544;12.142;2022-12-24T09:29:23;9.30;99.90
52609;DHT22;38503;48.544;12.142;2022-12-24T09:31:50;9.40;99.90
52609;DHT22;38503;48.544;12.142;2022-12-24T09:34:17;9.50;99.90
52609;DHT22;38503;48.544;12.142;2022-12-24T09:36:43;9.60;99.90
52609;DHT22;38503;48.544;12.142;2022-12-24T09:39:11;9.80;99.90
52609;DHT22;38503;48.544;12.142;2022-12-24T09:44:30;10.20;99.90
52609;DHT22;38503;48.544;12.142;2022-12-24T09:47:04;10.60;99.90
52609;DHT22;38503;48.544;12.142;2022-12-24T09:49:43;10.90;99.90
52609;DHT22;38503;48.544;12.142;2022-12-24T09:52:15;10.80;99.90
52609;DHT22;38503;48.544;12.142;2022-12-24T09:54:48;10.80;99.90
52609;DHT22;38503;48.544;12.142;2022-12-24T09:57:24;10.90;99.90
52609;DHT22;38503;48.544;12.142;2022-12-24T09:59:54;10.90;99.90
52609;DHT22;38503;48.544;12.142;2022-12-24T10:02:21;10.90;99.90
52609;DHT22;38503;48.544;12.142;2022-12-24T10:04:48;10.80;99.90
52609;DHT22;38503;48.544;12.142;2022-12-24T10:10:16;10.70;99.90
52609;DHT22;38503;48.544;12.142;2022-12-24T10:13:10;10.70;99.90
52609;DHT22;38503;48.544;12.142;2022-12-24T10:18:57;11.40;99.90
52609;DHT22;38503;48.544;12.142;2022-12-24T10:21:56;11.40;99.90
52609;DHT22;38503;48.544;12.142;2022-12-24T10:24:38;11.40;99.90
52609;DHT22;38503;48.544;12.142;2022-12-24T10:27:18;12.00;99.90
52609;DHT22;38503;48.544;12.142;2022-12-24T10:29:50;12.50;99.90
52609;DHT22;38503;48.544;12.142;2022-12-24T10:32:25;13.30;99.90
52609;DHT22;38503;48.544;12.142;2022-12-24T10:35:00;14.20;99.90
52609;DHT22;38503;48.544;12.142;2022-12-24T10:37:30;15.00;99.90
52609;DHT22;38503;48.544;12.142;2022-12-24T10:39:58;15.50;99.90
52609;DHT22;38503;48.544;12.142;2022-12-24T10:42:38;14.70;99.90
52609;DHT22;38503;48.544;12.142;2022-12-24T10:45:20;14.00;99.90
52609;DHT22;38503;48.544;12.142;2022-12-24T10:47:51;13.40;99.90
52609;DHT22;38503;48.544;12.142;2022-12-24T10:50:39;12.90;99.90
52609;DHT22;38503;48.544;12.142;2022-12-24T10:53:37;12.50;99.90
52609;DHT22;38503;48.544;12.142;2022-12-24T10:56:08;12.40;99.90
52609;DHT22;38503;48.544;12.142;2022-12-24T10:58:36;12.20;99.90
52609;DHT22;38503;48.544;12.142;2022-12-24T11:01:07;12.20;99.90
52609;DHT22;38503;48.544;12.142;2022-12-24T11:03:35;12.30;99.90
52609;DHT22;38503;48.544;12.142;2022-12-24T11:06:12;12.80;99.90
52609;DHT22;38503;48.544;12.142;2022-12-24T11:08:42;13.90;99.90
52609;DHT22;38503;48.544;12.142;2022-12-24T11:11:18;14.70;99.90
52609;DHT22;38503;48.544;12.142;2022-12-24T11:13:54;14.40;99.90
52609;DHT22;38503;48.544;12.142;2022-12-24T11:16:29;14.90;99.90
52609;DHT22;38503;48.544;12.142;2022-12-24T11:18:58;15.60;99.90
52609;DHT22;38503;48.544;12.142;2022-12-24T11:21:32;16.50;99.90
52609;DHT22;38503;48.544;12.142;2022-12-24T11:26:30;16.00;99.90
52609;DHT22;38503;48.544;12.142;2022-12-24T11:29:22;16.60;99.80
52609;DHT22;38503;48.544;12.142;2022-12-24T11:31:50;16.50;99.10
52609;DHT22;38503;48.544;12.142;2022-12-24T11:36:56;16.50;98.90
52609;DHT22;38503;48.544;12.142;2022-12-24T11:39:43;17.10;97.80
52609;DHT22;38503;48.544;12.142;2022-12-24T11:42:36;16.60;97.90
52609;DHT22;38503;48.544;12.142;2022-12-24T11:45:22;16.30;98.40
52609;DHT22;38503;48.544;12.142;2022-12-24T11:47:50;16.80;97.80
52609;DHT22;38503;48.544;12.142;2022-12-24T11:50:29;17.20;97.40
52609;DHT22;38503;48.544;12.142;2022-12-24T11:53:19;17.10;97.00
52609;DHT22;38503;48.544;12.142;2022-12-24T11:55:55;17.20;96.60
52609;DHT22;38503;48.544;12.142;2022-12-24T12:01:21;16.20;97.10
52609;DHT22;38503;48.544;12.142;2022-12-24T12:04:05;16.70;97.40
52609;DHT22;38503;48.544;12.142;2022-12-24T12:09:28;16.80;96.40
52609;DHT22;38503;48.544;12.142;2022-12-24T12:12:19;16.40;96.60
52609;DHT22;38503;48.544;12.142;2022-12-24T12:14:57;16.30;96.60
52609;DHT22;38503;48.544;12.142;2022-12-24T12:18:19;16.70;96.90
52609;DHT22;38503;48.544;12.142;2022-12-24T12:20:37;15.90;97.50
52609;DHT22;38503;48.544;12.142;2022-12-24T12:29:05;13.90;99.90
52609;DHT22;38503;48.544;12.142;2022-12-24T12:31:54;13.70;99.90
52609;DHT22;38503;48.544;12.142;2022-12-24T12:34:43;13.50;99.90
52609;DHT22;38503;48.544;12.142;2022-12-24T12:37:27;13.70;99.90
52609;DHT22;38503;48.544;12.142;2022-12-24T12:39:55;13.10;99.90
52609;DHT22;38503;48.544;12.142;2022-12-24T12:47:57;12.90;99.90
52609;DHT22;38503;48.544;12.142;2022-12-24T12:53:26;12.50;99.90
52609;DHT22;38503;48.544;12.142;2022-12-24T12:56:18;12.40;99.90
52609;DHT22;38503;48.544;12.142;2022-12-24T13:21:44;11.60;99.90
52609;DHT22;38503;48.544;12.142;2022-12-24T13:24:20;11.60;99.90
52609;DHT22;38503;48.544;12.142;2022-12-24T13:27:16;11.70;99.90
52609;DHT22;38503;48.544;12.142;2022-12-24T13:34:54;11.60;99.90
52609;DHT22;38503;48.544;12.142;2022-12-24T13:37:22;11.70;99.90
52609;DHT22;38503;48.544;12.142;2022-12-24T13:43:05;11.50;99.90
52609;DHT22;38503;48.544;12.142;2022-12-24T13:45:40;11.50;99.90
52609;DHT22;38503;48.544;12.142;2022-12-24T13:50:42;11.30;99.90
52609;DHT22;38503;48.544;12.142;2022-12-24T13:53:38;11.30;99.90
52609;DHT22;38503;48.544;12.142;2022-12-24T13:58:54;11.10;99.90
52609;DHT22;38503;48.544;12.142;2022-12-24T14:01:38;11.00;99.90
52609;DHT22;38503;48.544;12.142;2022-12-24T14:04:23;11.00;99.90
52609;DHT22;38503;48.544;12.142;2022-12-24T14:06:52;10.90;99.90
52609;DHT22;38503;48.544;12.142;2022-12-24T14:09:21;10.90;99.90
52609;DHT22;38503;48.544;12.142;2022-12-24T14:14:40;10.90;99.90
52609;DHT22;38503;48.544;12.142;2022-12-24T14:17:27;10.90;99.90
52609;DHT22;38503;48.544;12.142;2022-12-24T14:19:57;10.80;99.90
52609;DHT22;38503;48.544;12.142;2022-12-24T14:25:01;10.70;99.90
52609;DHT22;38503;48.544;12.142;2022-12-24T14:30:18;10.60;99.90
52609;DHT22;38503;48.544;12.142;2022-12-24T14:32:48;10.60;99.90
52609;DHT22;38503;48.544;12.142;2022-12-24T14:35:18;10.40;99.90
52609;DHT22;38503;48.544;12.142;2022-12-24T14:40:17;10.30;99.90
52609;DHT22;38503;48.544;12.142;2022-12-24T14:48:40;10.20;99.90
52609;DHT22;38503;48.544;12.142;2022-12-24T14:51:31;10.10;99.90
52609;DHT22;38503;48.544;12.142;2022-12-24T14:54:34;10.10;99.90
52609;DHT22;38503;48.544;12.142;2022-12-24T15:02:50;10.10;99.90
52609;DHT22;38503;48.544;12.142;2022-12-24T15:05:26;10.10;99.90
52609;DHT22;38503;48.544;12.142;2022-12-24T15:08:54;10.00;99.90
52609;DHT22;38503;48.544;12.142;2022-12-24T15:10:59;10.00;99.90
52609;DHT22;38503;48.544;12.142;2022-12-24T15:13:41;10.00;99.90
52609;DHT22;38503;48.544;12.142;2022-12-24T15:16:11;10.00;99.90
52609;DHT22;38503;48.544;12.142;2022-12-24T15:18:42;10.00;99.90
52609;DHT22;38503;48.544;12.142;2022-12-24T15:21:32;10.00;99.90
52609;DHT22;38503;48.544;12.142;2022-12-24T15:24:00;9.90;99.90
52609;DHT22;38503;48.544;12.142;2022-12-24T15:26:32;9.90;99.90
52609;DHT22;38503;48.544;12.142;2022-12-24T15:29:15;9.90;99.90
52609;DHT22;38503;48.544;12.142;2022-12-24T15:31:42;9.90;99.90
52609;DHT22;38503;48.544;12.142;2022-12-24T15:34:25;9.90;99.90
52609;DHT22;38503;48.544;12.142;2022-12-24T15:37:00;9.80;99.90
52609;DHT22;38503;48.544;12.142;2022-12-24T15:39:28;9.70;99.90
52609;DHT22;38503;48.544;12.142;2022-12-24T15:41:55;9.70;99.90
52609;DHT22;38503;48.544;12.142;2022-12-24T15:45:11;9.60;99.90
52609;DHT22;38503;48.544;12.142;2022-12-24T15:47:40;9.60;99.90
52609;DHT22;38503;48.544;12.142;2022-12-24T15:50:17;9.70;99.90
52609;DHT22;38503;48.544;12.142;2022-12-24T15:52:45;9.70;99.90
52609;DHT22;38503;48.544;12.142;2022-12-24T15:55:38;9.70;99.90
52609;DHT22;38503;48.544;12.142;2022-12-24T15:58:34;9.70;99.90
52609;DHT22;38503;48.544;12.142;2022-12-24T16:03:38;9.70;99.90
52609;DHT22;38503;48.544;12.142;2022-12-24T16:06:07;9.70;99.90
52609;DHT22;38503;48.544;12.142;2022-12-24T16:08:35;9.70;99.90
52609;DHT22;38503;48.544;12.142;2022-12-24T16:13:34;9.60;99.90
52609;DHT22;38503;48.544;12.142;2022-12-24T16:16:04;9.60;99.90
52609;DHT22;38503;48.544;12.142;2022-12-24T16:18:53;9.60;99.90
52609;DHT22;38503;48.544;12.142;2022-12-24T16:21:24;9.60;99.90
52609;DHT22;38503;48.544;12.142;2022-12-24T16:23:53;9.60;99.90
52609;DHT22;38503;48.544;12.142;2022-12-24T16:26:21;9.60;99.90
52609;DHT22;38503;48.544;12.142;2022-12-24T16:28:48;9.60;99.90
52609;DHT22;38503;48.544;12.142;2022-12-24T16:31:17;9.50;99.90
52609;DHT22;38503;48.544;12.142;2022-12-24T16:33:45;9.50;99.90
52609;DHT22;38503;48.544;12.142;2022-12-24T16:36:12;9.50;99.90
52609;DHT22;38503;48.544;12.142;2022-12-24T16:38:40;9.40;99.90
52609;DHT22;38503;48.544;12.142;2022-12-24T16:41:25;9.40;99.90
52609;DHT22;38503;48.544;12.142;2022-12-24T16:43:52;9.40;99.90
52609;DHT22;38503;48.544;12.142;2022-12-24T16:46:19;9.40;99.90
52609;DHT22;38503;48.544;12.142;2022-12-24T16:48:47;9.40;99.90
52609;DHT22;38503;48.544;12.142;2022-12-24T16:51:14;9.40;99.90
52609;DHT22;38503;48.544;12.142;2022-12-24T16:53:41;9.50;99.90
52609;DHT22;38503;48.544;12.142;2022-12-24T16:56:08;9.40;99.90
52609;DHT22;38503;48.544;12.142;2022-12-24T16:58:35;9.40;99.90
52609;DHT22;38503;48.544;12.142;2022-12-24T17:01:06;9.40;99.90
52609;DHT22;38503;48.544;12.142;2022-12-24T17:03:34;9.40;99.90
52609;DHT22;38503;48.544;12.142;2022-12-24T17:06:03;9.50;99.90
52609;DHT22;38503;48.544;12.142;2022-12-24T17:08:31;9.40;99.90
52609;DHT22;38503;48.544;12.142;2022-12-24T17:10:58;9.30;99.90
52609;DHT22;38503;48.544;12.142;2022-12-24T17:13:24;9.30;99.90
52609;DHT22;38503;48.544;12.142;2022-12-24T17:15:51;9.30;99.90
52609;DHT22;38503;48.544;12.142;2022-12-24T17:18:18;9.30;99.90
52609;DHT22;38503;48.544;12.142;2022-12-24T17:20:56;9.30;99.90
52609;DHT22;38503;48.544;12.142;2022-12-24T17:23:24;9.30;99.90
52609;DHT22;38503;48.544;12.142;2022-12-24T17:25:51;9.20;99.90
52609;DHT22;38503;48.544;12.142;2022-12-24T17:28:18;9.20;99.90
52609;DHT22;38503;48.544;12.142;2022-12-24T17:30:44;9.10;99.90
52609;DHT22;38503;48.544;12.142;2022-12-24T17:33:11;9.10;99.90
52609;DHT22;38503;48.544;12.142;2022-12-24T17:35:41;9.10;99.90
52609;DHT22;38503;48.544;12.142;2022-12-24T17:38:09;9.10;99.90
52609;DHT22;38503;48.544;12.142;2022-12-24T17:40:35;9.10;99.90
52609;DHT22;38503;48.544;12.142;2022-12-24T17:43:02;9.10;99.90
52609;DHT22;38503;48.544;12.142;2022-12-24T17:45:29;9.00;99.90
52609;DHT22;38503;48.544;12.142;2022-12-24T17:47:56;9.00;99.90
52609;DHT22;38503;48.544;12.142;2022-12-24T17:50:23;9.00;99.90
52609;DHT22;38503;48.544;12.142;2022-12-24T17:52:50;9.00;99.90